Time;durP1;ratioP1;P1;durP2;ratioP2;P2;SDS_P1;SDS_P2;PMS_P1;PMS_P2;Temp;Humidity;BMP_temperature;BMP_pressure;BME280_temperature;BME280_humidity;BME280_pressure;Samples;Min_cycle;Max_cycle;Signal;HPM_P1;HPM_P2
2022/02/22 00:02:22;;;;;;;16.30;4.47;;;;;;;;;;5038722;28;20052;-74
2022/02/22 00:04:48;;;;;;;11.93;3.75;;;;;;;;;;5054929;28;20497;-74
2022/02/22 00:07:15;;;;;;;13.82;4.28;;;;;;;;;;5043031;28;20030;-73
2022/02/22 00:09:41;;;;;;;12.27;3.97;;;;;;;;;;5051470;28;20507;-75
2022/02/22 00:12:07;;;;;;;17.05;5.10;;;;;;;;;;5038526;28;20547;-74
2022/02/22 00:14:34;;;;;;;11.23;3.97;;;;;;;;;;5042037;28;20017;-74
2022/02/22 00:17:00;;;;;;;12.68;4.57;;;;;;;;;;5049009;28;20106;-74
2022/02/22 00:19:26;;;;;;;7.32;3.90;;;;;;;;;;5043169;28;20032;-75
2022/02/22 00:21:54;;;;;;;13.85;4.57;;;;;;;;;;5034408;28;20042;-75
2022/02/22 00:24:20;;;;;;;10.35;3.78;;;;;;;;;;5057913;28;20029;-74
2022/02/22 00:26:46;;;;;;;7.40;3.30;;;;;;;;;;5048814;28;20051;-74
2022/02/22 00:29:12;;;;;;;10.73;3.78;;;;;;;;;;5037856;28;20045;-74
2022/02/22 00:31:39;;;;;;;12.10;3.80;;;;;;;;;;5040384;28;20471;-75
2022/02/22 00:34:05;;;;;;;11.05;3.35;;;;;;;;;;5044284;28;20032;-75
2022/02/22 00:36:33;;;;;;;15.07;4.13;;;;;;;;;;5038149;28;20037;-74
2022/02/22 00:38:59;;;;;;;15.40;3.70;;;;;;;;;;5047207;28;20032;-74
2022/02/22 00:41:25;;;;;;;13.30;4.60;;;;;;;;;;5044726;28;20025;-74
2022/02/22 00:43:51;;;;;;;13.18;4.38;;;;;;;;;;5038261;28;20013;-74
2022/02/22 00:46:17;;;;;;;8.30;3.60;;;;;;;;;;5048073;28;20021;-74
2022/02/22 00:48:44;;;;;;;14.23;4.18;;;;;;;;;;5048936;28;20033;-74
2022/02/22 00:51:10;;;;;;;9.48;3.72;;;;;;;;;;5045872;28;20053;-75
2022/02/22 00:53:36;;;;;;;10.07;3.58;;;;;;;;;;5036816;28;20033;-75
2022/02/22 00:56:02;;;;;;;12.50;3.72;;;;;;;;;;5038571;28;20117;-74
2022/02/22 00:58:28;;;;;;;13.52;4.13;;;;;;;;;;5037048;28;20053;-74
2022/02/22 01:00:54;;;;;;;12.10;3.83;;;;;;;;;;5058005;28;20095;-75
2022/02/22 01:03:20;;;;;;;14.15;4.63;;;;;;;;;;5057568;28;20033;-74
2022/02/22 01:05:47;;;;;;;10.70;4.20;;;;;;;;;;5043333;28;20029;-75
2022/02/22 01:08:13;;;;;;;14.20;3.97;;;;;;;;;;5037639;28;20040;-74
2022/02/22 01:10:39;;;;;;;11.77;4.53;;;;;;;;;;5044349;28;20037;-74
2022/02/22 01:13:05;;;;;;;11.45;4.93;;;;;;;;;;5049850;28;20045;-74
2022/02/22 01:15:31;;;;;;;12.27;4.40;;;;;;;;;;5041870;28;20029;-74
2022/02/22 01:17:57;;;;;;;15.45;3.88;;;;;;;;;;5052103;28;20384;-73
2022/02/22 01:20:24;;;;;;;21.55;4.93;;;;;;;;;;5052975;28;20040;-75
2022/02/22 01:22:52;;;;;;;8.38;3.67;;;;;;;;;;5052409;28;20562;-74
2022/02/22 01:25:19;;;;;;;14.63;4.18;;;;;;;;;;5040897;28;20024;-74
2022/02/22 01:27:46;;;;;;;11.57;3.67;;;;;;;;;;5041097;28;20056;-74
2022/02/22 01:30:12;;;;;;;23.67;6.20;;;;;;;;;;5042661;28;20116;-74
2022/02/22 01:32:38;;;;;;;10.68;3.80;;;;;;;;;;5048616;28;20043;-74
2022/02/22 01:35:07;;;;;;;14.05;3.78;;;;;;;;;;5043753;28;20028;-75
2022/02/22 01:37:34;;;;;;;15.02;3.88;;;;;;;;;;5044864;28;20491;-74
2022/02/22 01:40:00;;;;;;;9.10;3.70;;;;;;;;;;5041107;28;20039;-75
2022/02/22 01:42:26;;;;;;;14.55;4.13;;;;;;;;;;5046061;28;20029;-75
2022/02/22 01:44:52;;;;;;;12.13;3.47;;;;;;;;;;5049344;28;20057;-74
2022/02/22 01:47:18;;;;;;;13.23;4.65;;;;;;;;;;5049388;28;20032;-74
2022/02/22 01:49:44;;;;;;;15.55;5.43;;;;;;;;;;5044425;28;20116;-74
2022/02/22 01:52:11;;;;;;;15.57;5.00;;;;;;;;;;5044504;28;20098;-74
2022/02/22 01:54:37;;;;;;;11.38;4.07;;;;;;;;;;5037440;28;20036;-73
2022/02/22 01:57:03;;;;;;;20.00;4.78;;;;;;;;;;5053356;28;20104;-74
2022/02/22 01:59:29;;;;;;;9.48;3.92;;;;;;;;;;5041255;28;20032;-74
2022/02/22 02:01:56;;;;;;;17.48;4.55;;;;;;;;;;5043027;28;20040;-74
2022/02/22 02:04:25;;;;;;;10.48;3.08;;;;;;;;;;5049241;28;20025;-74
2022/02/22 02:06:51;;;;;;;15.02;4.05;;;;;;;;;;5039602;28;20057;-75
2022/02/22 02:09:17;;;;;;;13.82;4.72;;;;;;;;;;5040890;28;20037;-74
2022/02/22 02:11:47;;;;;;;10.40;3.75;;;;;;;;;;5052346;28;20487;-75
2022/02/22 02:14:14;;;;;;;14.25;4.28;;;;;;;;;;5048512;28;20566;-75
2022/02/22 02:16:40;;;;;;;15.40;4.40;;;;;;;;;;5041774;28;20029;-75
2022/02/22 02:19:07;;;;;;;9.70;3.58;;;;;;;;;;5045217;28;20100;-74
2022/02/22 02:21:34;;;;;;;13.25;3.80;;;;;;;;;;5065010;28;20040;-74
2022/02/22 02:24:14;;;;;;;8.32;3.30;;;;;;;;;;5050341;28;20025;-74
2022/02/22 02:26:40;;;;;;;9.35;5.05;;;;;;;;;;5052347;28;20421;-74
2022/02/22 02:29:10;;;;;;;11.70;3.50;;;;;;;;;;5036165;28;20029;-74
2022/02/22 02:31:37;;;;;;;10.95;3.47;;;;;;;;;;5040662;28;20464;-74
2022/02/22 02:34:04;;;;;;;11.18;3.58;;;;;;;;;;5051894;28;20060;-73
2022/02/22 02:36:35;;;;;;;18.38;4.28;;;;;;;;;;5044731;28;20511;-74
2022/02/22 02:39:01;;;;;;;13.73;4.13;;;;;;;;;;5040210;28;20033;-74
2022/02/22 02:41:28;;;;;;;10.80;3.55;;;;;;;;;;5047273;28;20104;-74
2022/02/22 02:43:54;;;;;;;10.65;3.50;;;;;;;;;;5042529;28;20029;-74
2022/02/22 02:46:20;;;;;;;12.05;3.45;;;;;;;;;;5044214;28;20029;-75
2022/02/22 02:48:46;;;;;;;9.13;4.05;;;;;;;;;;5044095;28;20025;-74
2022/02/22 02:51:12;;;;;;;12.10;4.15;;;;;;;;;;5050446;28;20029;-74
2022/02/22 02:53:38;;;;;;;8.55;3.25;;;;;;;;;;5046755;28;20070;-74
2022/02/22 02:56:04;;;;;;;11.15;3.80;;;;;;;;;;5036283;28;20030;-75
2022/02/22 02:58:30;;;;;;;15.40;3.47;;;;;;;;;;5045689;28;20578;-74
2022/02/22 03:00:56;;;;;;;9.32;3.78;;;;;;;;;;5040065;28;20052;-74
2022/02/22 03:03:22;;;;;;;10.93;3.40;;;;;;;;;;5045814;28;20025;-74
2022/02/22 03:05:48;;;;;;;16.83;4.38;;;;;;;;;;5047905;28;20038;-73
2022/02/22 03:08:14;;;;;;;8.90;3.22;;;;;;;;;;5037170;28;20033;-73
2022/02/22 03:10:43;;;;;;;8.98;3.17;;;;;;;;;;5037021;28;20045;-74
2022/02/22 03:13:10;;;;;;;13.02;3.80;;;;;;;;;;5039834;28;20083;-75
2022/02/22 03:15:36;;;;;;;11.23;3.42;;;;;;;;;;5039030;28;20071;-74
2022/02/22 03:18:02;;;;;;;12.75;3.97;;;;;;;;;;5046005;28;20052;-74
2022/02/22 03:20:28;;;;;;;8.20;3.47;;;;;;;;;;5038876;28;20060;-74
2022/02/22 03:22:54;;;;;;;19.83;5.13;;;;;;;;;;5048501;28;20028;-73
2022/02/22 03:25:21;;;;;;;14.27;3.80;;;;;;;;;;5040750;28;20037;-74
2022/02/22 03:27:47;;;;;;;18.90;4.18;;;;;;;;;;5035460;28;20112;-74
2022/02/22 03:30:13;;;;;;;16.45;4.43;;;;;;;;;;5037069;28;20038;-74
2022/02/22 03:32:39;;;;;;;14.25;3.55;;;;;;;;;;5046640;28;20499;-75
2022/02/22 03:35:06;;;;;;;7.38;4.10;;;;;;;;;;5041782;28;20040;-74
2022/02/22 03:37:32;;;;;;;9.65;3.67;;;;;;;;;;5037679;28;20024;-73
2022/02/22 03:39:58;;;;;;;12.10;4.30;;;;;;;;;;5064791;28;20382;-73
2022/02/22 03:42:24;;;;;;;13.57;4.80;;;;;;;;;;5052504;28;20033;-74
2022/02/22 03:44:50;;;;;;;11.50;3.40;;;;;;;;;;5045017;28;20025;-74
2022/02/22 03:47:16;;;;;;;9.90;3.63;;;;;;;;;;5044017;28;20043;-73
2022/02/22 03:49:42;;;;;;;9.52;3.35;;;;;;;;;;5040300;28;20491;-74
2022/02/22 03:52:08;;;;;;;20.05;3.85;;;;;;;;;;5045224;28;20585;-74
2022/02/22 03:54:34;;;;;;;9.38;4.05;;;;;;;;;;5042117;28;20119;-74
2022/02/22 03:57:00;;;;;;;13.15;3.75;;;;;;;;;;5043439;28;20067;-74
2022/02/22 03:59:26;;;;;;;9.55;4.15;;;;;;;;;;5038672;28;20027;-73
2022/02/22 04:01:54;;;;;;;15.40;4.07;;;;;;;;;;5038355;28;20036;-73
2022/02/22 04:04:20;;;;;;;14.93;4.03;;;;;;;;;;5049102;28;20041;-74
2022/02/22 04:06:46;;;;;;;11.52;3.70;;;;;;;;;;5053171;28;20082;-74
2022/02/22 04:09:12;;;;;;;12.70;3.42;;;;;;;;;;5048181;28;20048;-73
2022/02/22 04:11:38;;;;;;;19.40;4.72;;;;;;;;;;5048237;28;20025;-73
2022/02/22 04:14:04;;;;;;;15.45;3.17;;;;;;;;;;5040783;28;20025;-74
2022/02/22 04:16:31;;;;;;;7.93;3.97;;;;;;;;;;5047651;28;20029;-74
2022/02/22 04:18:57;;;;;;;10.07;3.70;;;;;;;;;;5045227;28;20036;-74
2022/02/22 04:21:23;;;;;;;14.45;4.78;;;;;;;;;;5044464;28;20376;-73
2022/02/22 04:23:49;;;;;;;11.75;3.90;;;;;;;;;;5044405;28;20025;-73
2022/02/22 04:26:15;;;;;;;13.98;3.85;;;;;;;;;;5042195;28;20034;-74
2022/02/22 04:28:41;;;;;;;17.55;4.25;;;;;;;;;;5040859;28;20036;-75
2022/02/22 04:31:07;;;;;;;11.35;3.92;;;;;;;;;;5036565;28;20080;-74
2022/02/22 04:33:34;;;;;;;19.90;3.95;;;;;;;;;;5045505;28;20084;-74
2022/02/22 04:36:00;;;;;;;8.80;3.97;;;;;;;;;;5051132;28;20030;-74
2022/02/22 04:38:26;;;;;;;11.75;4.50;;;;;;;;;;5061501;28;20033;-74
2022/02/22 04:40:52;;;;;;;15.07;4.70;;;;;;;;;;5040207;28;20033;-74
2022/02/22 04:43:18;;;;;;;12.23;3.97;;;;;;;;;;5042220;28;20037;-74
2022/02/22 04:45:44;;;;;;;12.90;3.60;;;;;;;;;;5035890;28;20044;-74
2022/02/22 04:48:10;;;;;;;10.48;4.38;;;;;;;;;;5051700;28;20044;-74
2022/02/22 04:50:36;;;;;;;12.38;3.53;;;;;;;;;;5041648;28;20113;-72
2022/02/22 04:53:03;;;;;;;15.75;3.70;;;;;;;;;;5049187;28;20051;-73
2022/02/22 04:55:30;;;;;;;14.90;4.60;;;;;;;;;;5045773;28;20034;-75
2022/02/22 04:57:56;;;;;;;10.32;3.63;;;;;;;;;;5069750;28;20081;-75
2022/02/22 05:00:30;;;;;;;14.32;4.05;;;;;;;;;;5036984;28;20037;-73
2022/02/22 05:02:57;;;;;;;;;;;;;;;;;;5064159;28;20032;-75
2022/02/22 05:05:23;;;;;;;19.10;4.55;;;;;;;;;;5035225;28;20418;-74
2022/02/22 05:07:49;;;;;;;23.20;5.93;;;;;;;;;;5044128;28;20108;-75
2022/02/22 05:10:15;;;;;;;16.85;4.97;;;;;;;;;;5038577;28;20045;-74
2022/02/22 05:12:41;;;;;;;10.45;4.20;;;;;;;;;;5047767;28;20032;-74
2022/02/22 05:15:08;;;;;;;17.05;4.03;;;;;;;;;;5041877;28;20032;-74
2022/02/22 05:17:34;;;;;;;13.85;3.78;;;;;;;;;;5057146;28;20028;-74
2022/02/22 05:20:00;;;;;;;12.10;3.83;;;;;;;;;;5043606;28;20032;-74
2022/02/22 05:22:27;;;;;;;17.38;4.70;;;;;;;;;;5060414;28;20025;-74
2022/02/22 05:24:53;;;;;;;16.13;4.93;;;;;;;;;;5049460;28;20091;-74
2022/02/22 05:27:19;;;;;;;12.98;4.18;;;;;;;;;;5063161;28;20040;-74
2022/02/22 05:29:45;;;;;;;12.10;4.55;;;;;;;;;;5049906;28;20025;-73
2022/02/22 05:32:11;;;;;;;19.23;5.82;;;;;;;;;;5046667;28;20020;-74
2022/02/22 05:34:37;;;;;;;12.52;4.70;;;;;;;;;;5057503;28;20104;-75
2022/02/22 05:37:04;;;;;;;19.90;5.05;;;;;;;;;;5062429;28;20024;-75
2022/02/22 05:39:30;;;;;;;18.55;6.43;;;;;;;;;;5039301;28;20032;-74
2022/02/22 05:41:56;;;;;;;15.50;4.25;;;;;;;;;;5049196;28;20089;-74
2022/02/22 05:44:22;;;;;;;15.18;4.80;;;;;;;;;;5054482;28;20044;-75
2022/02/22 05:46:48;;;;;;;20.65;4.88;;;;;;;;;;5044718;28;20038;-74
2022/02/22 05:49:14;;;;;;;11.02;4.20;;;;;;;;;;5035101;28;20057;-74
2022/02/22 05:51:41;;;;;;;15.38;4.53;;;;;;;;;;5061975;28;20486;-74
2022/02/22 05:54:07;;;;;;;17.90;4.88;;;;;;;;;;5046027;28;20033;-74
2022/02/22 05:56:33;;;;;;;14.55;4.53;;;;;;;;;;5046127;28;20029;-74
2022/02/22 05:59:02;;;;;;;17.77;4.25;;;;;;;;;;5048425;28;20025;-74
2022/02/22 06:01:28;;;;;;;17.60;4.60;;;;;;;;;;5048761;28;20044;-74
2022/02/22 06:03:56;;;;;;;18.27;4.47;;;;;;;;;;5048402;28;20549;-74
2022/02/22 06:06:22;;;;;;;13.23;4.70;;;;;;;;;;5062205;28;20124;-75
2022/02/22 06:08:48;;;;;;;15.38;5.25;;;;;;;;;;5043420;28;20450;-74
2022/02/22 06:11:14;;;;;;;20.35;6.15;;;;;;;;;;5039219;28;20036;-75
2022/02/22 06:13:40;;;;;;;18.13;4.82;;;;;;;;;;5043087;28;21818;-75
2022/02/22 06:16:06;;;;;;;14.30;6.60;;;;;;;;;;5047713;28;20145;-74
2022/02/22 06:18:32;;;;;;;14.35;4.95;;;;;;;;;;5044166;28;20029;-74
2022/02/22 06:20:59;;;;;;;22.05;6.30;;;;;;;;;;5045071;28;20021;-73
2022/02/22 06:23:25;;;;;;;24.08;5.45;;;;;;;;;;5066849;28;20028;-75
2022/02/22 06:25:51;;;;;;;19.42;5.38;;;;;;;;;;5051960;28;20522;-74
2022/02/22 06:28:17;;;;;;;19.75;5.78;;;;;;;;;;5043337;28;20037;-75
2022/02/22 06:30:43;;;;;;;13.10;5.68;;;;;;;;;;5045255;28;20033;-75
2022/02/22 06:33:09;;;;;;;22.23;5.20;;;;;;;;;;5051140;28;20029;-74
2022/02/22 06:35:35;;;;;;;21.98;4.68;;;;;;;;;;5044990;28;20017;-74
2022/02/22 06:38:01;;;;;;;22.23;6.07;;;;;;;;;;5048342;28;20025;-76
2022/02/22 06:40:28;;;;;;;12.27;3.22;;;;;;;;;;5047930;28;20100;-75
2022/02/22 06:42:54;;;;;;;8.18;2.10;;;;;;;;;;5035422;28;20098;-74
2022/02/22 06:45:20;;;;;;;4.32;1.80;;;;;;;;;;5036812;28;20060;-74
2022/02/22 06:47:46;;;;;;;2.88;1.38;;;;;;;;;;5046937;28;20071;-73
2022/02/22 06:50:13;;;;;;;2.95;1.40;;;;;;;;;;5050471;28;20064;-74
2022/02/22 06:52:40;;;;;;;1.30;1.20;;;;;;;;;;5053599;28;20029;-73
2022/02/22 06:55:07;;;;;;;1.75;1.63;;;;;;;;;;5044325;28;20025;-75
2022/02/22 06:57:33;;;;;;;3.70;1.40;;;;;;;;;;5041980;28;20104;-75
2022/02/22 07:00:00;;;;;;;2.72;1.23;;;;;;;;;;5048989;28;20483;-74
2022/02/22 07:02:26;;;;;;;3.05;1.58;;;;;;;;;;5042355;28;20095;-74
2022/02/22 07:04:52;;;;;;;3.97;1.52;;;;;;;;;;5046542;28;20041;-74
2022/02/22 07:07:18;;;;;;;2.33;1.55;;;;;;;;;;5037924;28;20052;-74
2022/02/22 07:09:44;;;;;;;2.15;1.30;;;;;;;;;;5045015;28;20061;-73
2022/02/22 07:12:10;;;;;;;2.72;1.60;;;;;;;;;;5040490;28;20021;-75
2022/02/22 07:14:36;;;;;;;2.22;1.40;;;;;;;;;;5052223;28;20024;-74
2022/02/22 07:17:02;;;;;;;2.80;1.58;;;;;;;;;;5045568;28;20032;-74
2022/02/22 07:19:30;;;;;;;3.15;2.53;;;;;;;;;;5043853;28;20031;-75
2022/02/22 07:21:56;;;;;;;3.25;1.70;;;;;;;;;;5046508;28;20029;-75
2022/02/22 07:24:22;;;;;;;4.85;1.80;;;;;;;;;;5046584;28;20693;-73
2022/02/22 07:26:48;;;;;;;5.80;1.80;;;;;;;;;;5048176;28;20051;-74
2022/02/22 07:29:14;;;;;;;6.07;2.08;;;;;;;;;;5045893;28;20034;-74
2022/02/22 07:31:40;;;;;;;3.33;1.98;;;;;;;;;;5045136;28;20537;-75
2022/02/22 07:34:07;;;;;;;5.53;1.90;;;;;;;;;;5037840;28;20029;-75
2022/02/22 07:36:33;;;;;;;4.68;2.13;;;;;;;;;;5038744;28;20029;-74
2022/02/22 07:38:59;;;;;;;6.95;2.70;;;;;;;;;;5041460;28;20099;-75
2022/02/22 07:41:25;;;;;;;4.88;2.13;;;;;;;;;;5046168;28;20132;-75
2022/02/22 07:43:51;;;;;;;7.57;2.38;;;;;;;;;;5043720;28;20036;-75
2022/02/22 07:46:17;;;;;;;7.05;1.98;;;;;;;;;;5071945;28;20029;-75
2022/02/22 07:48:44;;;;;;;4.47;2.20;;;;;;;;;;5066155;28;20554;-75
2022/02/22 07:51:16;;;;;;;4.15;2.20;;;;;;;;;;5045386;28;20034;-75
2022/02/22 07:53:42;;;;;;;7.28;2.70;;;;;;;;;;5043076;28;20412;-75
2022/02/22 07:56:09;;;;;;;4.78;2.55;;;;;;;;;;5041339;28;20029;-75
2022/02/22 07:58:35;;;;;;;4.97;2.30;;;;;;;;;;5046325;28;20406;-76
2022/02/22 08:01:01;;;;;;;7.68;2.35;;;;;;;;;;5035354;28;20108;-74
2022/02/22 08:03:27;;;;;;;9.00;2.50;;;;;;;;;;5046291;28;20601;-74
2022/02/22 08:05:53;;;;;;;9.38;3.42;;;;;;;;;;5043401;28;20036;-74
2022/02/22 08:08:19;;;;;;;8.93;2.63;;;;;;;;;;5044023;28;20020;-74
2022/02/22 08:10:45;;;;;;;6.25;2.17;;;;;;;;;;5045724;28;20060;-76
2022/02/22 08:13:12;;;;;;;3.55;2.00;;;;;;;;;;5043052;28;20017;-75
2022/02/22 08:15:38;;;;;;;6.07;2.30;;;;;;;;;;5041344;28;20462;-75
2022/02/22 08:18:05;;;;;;;6.22;2.60;;;;;;;;;;5043109;28;20096;-75
2022/02/22 08:20:31;;;;;;;9.43;2.33;;;;;;;;;;5041420;28;20083;-75
2022/02/22 08:22:59;;;;;;;5.40;2.10;;;;;;;;;;5053276;28;20037;-75
2022/02/22 08:25:25;;;;;;;4.32;2.30;;;;;;;;;;5046549;28;20025;-75
2022/02/22 08:27:51;;;;;;;8.30;3.10;;;;;;;;;;5051889;28;20099;-75
2022/02/22 08:30:18;;;;;;;6.28;2.47;;;;;;;;;;5053056;28;20024;-76
2022/02/22 08:32:44;;;;;;;5.85;3.00;;;;;;;;;;5049904;28;20060;-75
2022/02/22 08:35:10;;;;;;;6.40;2.50;;;;;;;;;;5048374;28;20024;-74
2022/02/22 08:37:36;;;;;;;9.18;2.85;;;;;;;;;;5060024;28;20033;-74
2022/02/22 08:40:03;;;;;;;10.50;3.13;;;;;;;;;;5060919;28;20720;-75
2022/02/22 08:42:29;;;;;;;8.65;3.22;;;;;;;;;;5042191;28;20521;-75
2022/02/22 08:44:57;;;;;;;4.35;2.10;;;;;;;;;;5041543;28;20044;-75
2022/02/22 08:47:23;;;;;;;6.60;3.25;;;;;;;;;;5043934;28;20029;-75
2022/02/22 08:49:49;;;;;;;7.05;2.38;;;;;;;;;;5042497;28;20029;-75
2022/02/22 08:52:18;;;;;;;11.15;2.92;;;;;;;;;;5044617;28;20380;-76
2022/02/22 08:54:46;;;;;;;7.30;2.30;;;;;;;;;;5040201;28;20059;-75
2022/02/22 08:57:12;;;;;;;17.98;3.00;;;;;;;;;;5045062;28;20021;-75
2022/02/22 08:59:38;;;;;;;8.95;3.13;;;;;;;;;;5042141;28;20430;-76
2022/02/22 09:02:05;;;;;;;12.02;3.38;;;;;;;;;;5045922;28;20055;-74
2022/02/22 09:04:31;;;;;;;6.57;2.33;;;;;;;;;;5043126;28;20033;-74
2022/02/22 09:06:57;;;;;;;5.68;2.42;;;;;;;;;;5045819;28;20033;-75
2022/02/22 09:09:23;;;;;;;7.80;2.63;;;;;;;;;;5048659;28;20139;-75
2022/02/22 09:11:49;;;;;;;8.82;2.70;;;;;;;;;;5049472;28;20029;-75
2022/02/22 09:14:15;;;;;;;8.48;3.13;;;;;;;;;;5046427;28;20057;-75
2022/02/22 09:16:41;;;;;;;9.82;3.90;;;;;;;;;;5046221;28;20036;-76
2022/02/22 09:19:07;;;;;;;9.15;2.70;;;;;;;;;;5061122;28;20052;-74
2022/02/22 09:21:33;;;;;;;13.93;4.38;;;;;;;;;;5044355;28;20037;-77
2022/02/22 09:24:00;;;;;;;9.35;3.28;;;;;;;;;;5044371;28;20029;-76
2022/02/22 09:26:26;;;;;;;10.85;3.28;;;;;;;;;;5045467;28;20047;-73
2022/02/22 09:28:54;;;;;;;11.90;3.38;;;;;;;;;;5045350;28;21639;-75
2022/02/22 09:31:20;;;;;;;13.60;3.50;;;;;;;;;;5045767;28;20029;-75
2022/02/22 09:33:47;;;;;;;7.40;2.40;;;;;;;;;;5038571;28;20063;-76
2022/02/22 09:36:13;;;;;;;15.25;3.55;;;;;;;;;;5045877;28;20040;-74
2022/02/22 09:38:39;;;;;;;9.90;3.38;;;;;;;;;;5044279;28;20722;-75
2022/02/22 09:41:05;;;;;;;9.60;3.67;;;;;;;;;;5042276;28;20069;-74
2022/02/22 09:43:34;;;;;;;13.27;4.13;;;;;;;;;;5042360;28;20072;-77
2022/02/22 09:46:00;;;;;;;11.93;4.28;;;;;;;;;;5062661;28;20039;-74
2022/02/22 09:48:26;;;;;;;12.10;4.10;;;;;;;;;;5046254;28;20037;-75
2022/02/22 09:50:52;;;;;;;11.55;3.72;;;;;;;;;;5042453;28;20032;-76
2022/02/22 09:53:18;;;;;;;13.27;4.07;;;;;;;;;;5043614;28;20430;-75
2022/02/22 09:55:44;;;;;;;14.50;4.32;;;;;;;;;;5043243;28;20083;-75
2022/02/22 09:58:11;;;;;;;15.30;3.47;;;;;;;;;;5043980;28;20033;-75
2022/02/22 10:00:37;;;;;;;11.40;4.15;;;;;;;;;;5046654;28;20570;-73
2022/02/22 10:03:03;;;;;;;10.68;2.88;;;;;;;;;;5042730;28;20040;-73
2022/02/22 10:05:29;;;;;;;8.75;3.20;;;;;;;;;;5042203;28;20024;-75
2022/02/22 10:07:57;;;;;;;12.48;3.40;;;;;;;;;;5045426;28;20033;-74
2022/02/22 10:10:40;;;;;;;11.88;3.58;;;;;;;;;;5060863;28;20110;-75
2022/02/22 10:13:07;;;;;;;10.85;3.60;;;;;;;;;;5044109;28;20071;-75
2022/02/22 10:15:38;;;;;;;12.85;3.58;;;;;;;;;;5041349;28;20025;-76
2022/02/22 10:18:04;;;;;;;12.45;4.10;;;;;;;;;;5042141;28;20102;-76
2022/02/22 10:20:30;;;;;;;6.85;3.13;;;;;;;;;;5044127;28;20055;-76
2022/02/22 10:23:00;;;;;;;7.85;3.10;;;;;;;;;;5044463;28;20033;-75
2022/02/22 10:25:26;;;;;;;10.88;3.72;;;;;;;;;;5056531;28;20526;-75
2022/02/22 10:27:53;;;;;;;10.55;2.92;;;;;;;;;;5044131;28;20029;-75
2022/02/22 10:30:46;;;;;;;20.35;3.40;;;;;;;;;;5047196;28;20033;-75
2022/02/22 10:33:12;;;;;;;9.93;2.80;;;;;;;;;;5046916;28;20036;-77
2022/02/22 10:35:39;;;;;;;8.95;3.00;;;;;;;;;;5061262;28;20040;-77
2022/02/22 10:38:15;;;;;;;9.18;2.83;;;;;;;;;;5049651;28;20520;-77
2022/02/22 10:40:42;;;;;;;7.88;3.40;;;;;;;;;;5048632;28;20025;-77
2022/02/22 10:43:09;;;;;;;11.00;2.80;;;;;;;;;;5044668;28;20057;-77
2022/02/22 10:45:35;;;;;;;9.05;3.10;;;;;;;;;;5043389;28;20035;-76
2022/02/22 10:48:01;;;;;;;9.82;3.00;;;;;;;;;;5045098;28;20032;-76
2022/02/22 10:50:31;;;;;;;14.23;3.25;;;;;;;;;;5041671;28;20048;-76
2022/02/22 10:52:57;;;;;;;9.07;3.42;;;;;;;;;;5059774;28;20017;-76
2022/02/22 10:55:23;;;;;;;15.02;4.20;;;;;;;;;;5061491;28;20033;-77
2022/02/22 10:57:49;;;;;;;14.90;3.90;;;;;;;;;;5050771;28;20021;-76
2022/02/22 11:00:16;;;;;;;9.32;3.75;;;;;;;;;;5052270;28;21610;-75
2022/02/22 11:02:46;;;;;;;10.25;3.60;;;;;;;;;;5049877;28;20024;-77
2022/02/22 11:05:13;;;;;;;13.30;3.58;;;;;;;;;;5045230;28;20064;-74
2022/02/22 11:07:39;;;;;;;13.43;3.58;;;;;;;;;;5045902;28;20032;-77
2022/02/22 11:10:06;;;;;;;10.55;4.60;;;;;;;;;;5047559;28;20108;-76
2022/02/22 11:12:33;;;;;;;8.00;3.40;;;;;;;;;;5048502;28;20149;-78
2022/02/22 11:15:05;;;;;;;9.77;4.53;;;;;;;;;;5042707;28;20102;-79
2022/02/22 11:17:31;;;;;;;12.43;4.18;;;;;;;;;;5045261;28;20025;-77
2022/02/22 11:19:58;;;;;;;13.38;3.85;;;;;;;;;;5041479;28;20596;-78
2022/02/22 11:22:26;;;;;;;14.23;3.50;;;;;;;;;;5048587;28;20029;-77
2022/02/22 11:24:52;;;;;;;10.82;3.70;;;;;;;;;;5048441;28;20029;-79
2022/02/22 11:27:25;;;;;;;11.50;3.80;;;;;;;;;;5049326;28;20032;-78
2022/02/22 11:29:55;;;;;;;12.65;3.90;;;;;;;;;;5048291;28;20069;-77
2022/02/22 11:32:23;;;;;;;11.82;3.65;;;;;;;;;;5060606;28;20109;-78
2022/02/22 11:34:49;;;;;;;10.20;3.92;;;;;;;;;;5055259;28;20029;-76
2022/02/22 11:37:17;;;;;;;16.02;3.45;;;;;;;;;;5043518;28;20403;-78
2022/02/22 11:39:52;;;;;;;5.80;2.60;;;;;;;;;;5043657;28;20017;-78
2022/02/22 11:42:21;;;;;;;9.25;3.47;;;;;;;;;;5048806;28;20115;-76
2022/02/22 11:45:00;;;;;;;14.80;3.10;;;;;;;;;;5045153;28;20166;-77
2022/02/22 11:47:27;;;;;;;10.45;3.10;;;;;;;;;;5042249;28;20029;-76
2022/02/22 11:49:54;;;;;;;9.82;3.17;;;;;;;;;;5047552;28;20120;-77
2022/02/22 11:52:20;;;;;;;11.43;3.65;;;;;;;;;;5065037;28;20451;-77
2022/02/22 11:54:47;;;;;;;9.77;3.03;;;;;;;;;;5064316;28;20053;-76
2022/02/22 11:57:15;;;;;;;6.95;2.97;;;;;;;;;;5061461;28;20108;-75
2022/02/22 11:59:46;;;;;;;7.00;3.90;;;;;;;;;;5045413;28;20044;-76
2022/02/22 12:02:12;;;;;;;9.50;2.90;;;;;;;;;;5046918;28;20037;-76
2022/02/22 12:04:43;;;;;;;6.60;2.83;;;;;;;;;;5046910;28;21177;-76
2022/02/22 12:07:09;;;;;;;14.20;3.25;;;;;;;;;;5042937;28;20086;-78
2022/02/22 12:09:37;;;;;;;11.13;3.42;;;;;;;;;;5063680;28;20056;-79
2022/02/22 12:12:06;;;;;;;6.97;2.58;;;;;;;;;;5054396;28;20064;-79
2022/02/22 12:14:32;;;;;;;8.65;2.85;;;;;;;;;;5053483;28;20028;-79
2022/02/22 12:16:58;;;;;;;6.72;2.83;;;;;;;;;;5069774;28;20055;-79
2022/02/22 12:19:26;;;;;;;7.15;2.75;;;;;;;;;;5047144;28;20025;-80
2022/02/22 12:21:54;;;;;;;10.93;2.92;;;;;;;;;;5049864;28;20025;-78
2022/02/22 12:24:24;;;;;;;10.15;3.05;;;;;;;;;;5047463;28;20021;-79
2022/02/22 12:26:52;;;;;;;5.82;2.55;;;;;;;;;;5051061;28;20099;-79
2022/02/22 12:29:18;;;;;;;11.90;3.28;;;;;;;;;;5050332;28;20164;-78
2022/02/22 12:31:53;;;;;;;10.32;3.28;;;;;;;;;;5051304;28;20060;-78
2022/02/22 12:34:19;;;;;;;12.70;3.63;;;;;;;;;;5059747;28;20032;-78
2022/02/22 12:36:46;;;;;;;9.02;2.83;;;;;;;;;;5040199;28;20053;-79
2022/02/22 12:39:15;;;;;;;5.72;2.50;;;;;;;;;;5045601;28;20021;-77
2022/02/22 12:41:42;;;;;;;11.43;3.42;;;;;;;;;;5043493;28;20071;-75
2022/02/22 12:44:13;;;;;;;11.25;2.55;;;;;;;;;;5038923;28;20145;-78
2022/02/22 12:46:40;;;;;;;8.95;2.60;;;;;;;;;;5044222;28;20043;-77
2022/02/22 12:49:06;;;;;;;8.85;3.63;;;;;;;;;;5040649;28;20028;-78
2022/02/22 12:51:33;;;;;;;12.43;2.38;;;;;;;;;;5042321;28;20033;-76
2022/02/22 12:54:07;;;;;;;7.72;2.70;;;;;;;;;;5042467;28;20025;-77
2022/02/22 12:56:44;;;;;;;4.65;2.38;;;;;;;;;;5057021;28;20033;-78
2022/02/22 12:59:12;;;;;;;9.30;3.00;;;;;;;;;;5040583;28;20126;-78
2022/02/22 13:01:39;;;;;;;6.43;2.88;;;;;;;;;;5038306;28;20122;-77
2022/02/22 13:04:08;;;;;;;5.88;2.58;;;;;;;;;;5048012;28;20138;-81
2022/02/22 13:06:36;;;;;;;3.40;1.95;;;;;;;;;;5053994;28;20040;-78
2022/02/22 13:09:04;;;;;;;5.93;2.08;;;;;;;;;;5035500;28;20079;-79
2022/02/22 13:11:31;;;;;;;4.78;2.05;;;;;;;;;;5039739;28;20055;-79
2022/02/22 13:13:57;;;;;;;4.28;2.08;;;;;;;;;;5041406;28;20037;-79
2022/02/22 13:16:23;;;;;;;9.45;3.22;;;;;;;;;;5044628;28;20048;-80
2022/02/22 13:18:55;;;;;;;4.43;2.42;;;;;;;;;;5045121;28;20032;-81
2022/02/22 13:21:22;;;;;;;6.20;2.67;;;;;;;;;;5045628;28;20092;-80
2022/02/22 13:23:48;;;;;;;5.55;2.60;;;;;;;;;;5048457;28;20044;-79
2022/02/22 13:26:15;;;;;;;6.63;2.80;;;;;;;;;;5045095;28;20041;-80
2022/02/22 13:28:42;;;;;;;7.50;2.60;;;;;;;;;;5047023;28;20778;-81
2022/02/22 13:31:14;;;;;;;8.20;4.25;;;;;;;;;;5048254;28;20037;-79
2022/02/22 13:33:43;;;;;;;8.57;3.42;;;;;;;;;;5050260;28;20040;-79
2022/02/22 13:36:14;;;;;;;8.40;2.58;;;;;;;;;;5044854;28;20025;-78
2022/02/22 13:38:41;;;;;;;7.50;2.80;;;;;;;;;;5047741;28;20031;-80
2022/02/22 13:41:11;;;;;;;9.23;2.90;;;;;;;;;;5045313;28;20403;-81
2022/02/22 13:43:38;;;;;;;10.48;2.97;;;;;;;;;;5048106;28;20108;-80
2022/02/22 13:46:04;;;;;;;9.68;2.70;;;;;;;;;;5066209;28;21203;-77
2022/02/22 13:48:31;;;;;;;7.10;3.03;;;;;;;;;;5051108;28;20029;-79
2022/02/22 13:51:07;;;;;;;5.97;2.95;;;;;;;;;;5047986;28;20649;-79
2022/02/22 13:53:34;;;;;;;6.82;2.42;;;;;;;;;;5062351;28;20040;-82
2022/02/22 13:56:02;;;;;;;6.60;2.20;;;;;;;;;;5059940;28;20038;-79
2022/02/22 13:58:29;;;;;;;7.43;2.83;;;;;;;;;;5042573;28;20114;-78
2022/02/22 14:01:00;;;;;;;4.28;2.15;;;;;;;;;;5044695;28;20029;-80
2022/02/22 14:03:26;;;;;;;4.80;1.98;;;;;;;;;;5043847;28;20037;-78
2022/02/22 14:05:53;;;;;;;5.60;2.15;;;;;;;;;;5046306;28;20036;-76
2022/02/22 14:08:19;;;;;;;5.10;3.10;;;;;;;;;;5044910;28;20115;-79
2022/02/22 14:10:46;;;;;;;4.32;2.40;;;;;;;;;;5041611;28;20223;-79
2022/02/22 14:13:14;;;;;;;6.75;3.13;;;;;;;;;;5041193;28;20025;-78
2022/02/22 14:15:41;;;;;;;5.60;2.58;;;;;;;;;;5042371;28;20454;-79
2022/02/22 14:18:08;;;;;;;10.48;3.03;;;;;;;;;;5036998;28;20116;-79
2022/02/22 14:20:34;;;;;;;5.90;2.70;;;;;;;;;;5040921;28;20101;-77
2022/02/22 14:23:01;;;;;;;6.75;3.15;;;;;;;;;;5060090;28;20033;-78
2022/02/22 14:25:28;;;;;;;7.35;2.47;;;;;;;;;;5042403;28;20391;-78
2022/02/22 14:27:55;;;;;;;3.83;2.20;;;;;;;;;;5045003;28;20114;-78
2022/02/22 14:30:21;;;;;;;5.30;2.78;;;;;;;;;;5059858;28;20033;-79
2022/02/22 14:32:47;;;;;;;7.65;2.15;;;;;;;;;;5060143;28;20029;-77
2022/02/22 14:35:13;;;;;;;4.28;2.03;;;;;;;;;;5045314;28;20025;-77